sensor_id;sensor_type;location;lat;lon;timestamp;P1;durP1;ratioP1;P2;durP2;ratioP2
78183;SDS011;67442;44.570;18.610;2023-02-28T00:01:37;132.95;;;48.78;;
78183;SDS011;67442;44.570;18.610;2023-02-28T00:04:08;133.63;;;49.63;;
78183;SDS011;67442;44.570;18.610;2023-02-28T00:06:35;120.88;;;44.15;;
78183;SDS011;67442;44.570;18.610;2023-02-28T00:09:03;125.68;;;46.10;;
78183;SDS011;67442;44.570;18.610;2023-02-28T00:11:30;112.75;;;45.55;;
78183;SDS011;67442;44.570;18.610;2023-02-28T00:13:58;125.05;;;47.55;;
78183;SDS011;67442;44.570;18.610;2023-02-28T00:16:25;126.68;;;48.03;;
78183;SDS011;67442;44.570;18.610;2023-02-28T00:18:52;117.72;;;43.55;;
78183;SDS011;67442;44.570;18.610;2023-02-28T00:21:20;117.07;;;45.22;;
78183;SDS011;67442;44.570;18.610;2023-02-28T00:23:47;130.35;;;47.50;;
78183;SDS011;67442;44.570;18.610;2023-02-28T00:26:14;138.05;;;54.22;;
78183;SDS011;67442;44.570;18.610;2023-02-28T00:28:41;111.72;;;44.00;;
78183;SDS011;67442;44.570;18.610;2023-02-28T00:31:09;117.55;;;45.42;;
78183;SDS011;67442;44.570;18.610;2023-02-28T00:33:36;129.25;;;50.00;;
78183;SDS011;67442;44.570;18.610;2023-02-28T00:36:06;168.25;;;60.78;;
78183;SDS011;67442;44.570;18.610;2023-02-28T00:38:34;128.38;;;49.65;;
78183;SDS011;67442;44.570;18.610;2023-02-28T00:41:06;150.45;;;60.65;;
78183;SDS011;67442;44.570;18.610;2023-02-28T00:43:34;153.60;;;57.83;;
78183;SDS011;67442;44.570;18.610;2023-02-28T00:46:02;137.35;;;51.20;;
78183;SDS011;67442;44.570;18.610;2023-02-28T00:48:29;127.97;;;47.67;;
78183;SDS011;67442;44.570;18.610;2023-02-28T00:51:00;131.52;;;49.53;;
78183;SDS011;67442;44.570;18.610;2023-02-28T00:53:27;127.22;;;48.05;;
78183;SDS011;67442;44.570;18.610;2023-02-28T00:55:58;114.57;;;42.60;;
78183;SDS011;67442;44.570;18.610;2023-02-28T00:58:26;116.43;;;43.13;;
78183;SDS011;67442;44.570;18.610;2023-02-28T01:00:52;110.63;;;43.47;;
78183;SDS011;67442;44.570;18.610;2023-02-28T01:03:20;117.07;;;46.13;;
78183;SDS011;67442;44.570;18.610;2023-02-28T01:05:51;114.45;;;45.70;;
78183;SDS011;67442;44.570;18.610;2023-02-28T01:08:18;129.43;;;48.78;;
78183;SDS011;67442;44.570;18.610;2023-02-28T01:10:49;137.35;;;51.60;;
78183;SDS011;67442;44.570;18.610;2023-02-28T01:13:17;122.32;;;47.72;;
78183;SDS011;67442;44.570;18.610;2023-02-28T01:15:51;127.68;;;49.20;;
78183;SDS011;67442;44.570;18.610;2023-02-28T01:18:20;148.40;;;55.67;;
78183;SDS011;67442;44.570;18.610;2023-02-28T01:20:47;140.15;;;51.75;;
78183;SDS011;67442;44.570;18.610;2023-02-28T01:23:15;137.60;;;51.55;;
78183;SDS011;67442;44.570;18.610;2023-02-28T01:25:42;127.32;;;49.90;;
78183;SDS011;67442;44.570;18.610;2023-02-28T01:28:09;118.85;;;45.38;;
78183;SDS011;67442;44.570;18.610;2023-02-28T01:30:36;140.30;;;50.53;;
78183;SDS011;67442;44.570;18.610;2023-02-28T01:33:04;121.97;;;47.05;;
78183;SDS011;67442;44.570;18.610;2023-02-28T01:35:32;115.75;;;44.42;;
78183;SDS011;67442;44.570;18.610;2023-02-28T01:37:59;129.77;;;48.10;;
78183;SDS011;67442;44.570;18.610;2023-02-28T01:40:30;132.07;;;46.00;;
78183;SDS011;67442;44.570;18.610;2023-02-28T01:42:57;123.30;;;45.67;;
78183;SDS011;67442;44.570;18.610;2023-02-28T01:45:28;124.15;;;44.50;;
78183;SDS011;67442;44.570;18.610;2023-02-28T01:48:04;125.60;;;46.40;;
78183;SDS011;67442;44.570;18.610;2023-02-28T01:50:39;145.80;;;52.45;;
78183;SDS011;67442;44.570;18.610;2023-02-28T01:53:14;159.10;;;58.47;;
78183;SDS011;67442;44.570;18.610;2023-02-28T01:55:47;152.50;;;53.25;;
78183;SDS011;67442;44.570;18.610;2023-02-28T01:58:16;130.05;;;48.88;;
78183;SDS011;67442;44.570;18.610;2023-02-28T02:00:48;152.23;;;53.58;;
78183;SDS011;67442;44.570;18.610;2023-02-28T02:03:15;131.95;;;46.42;;
78183;SDS011;67442;44.570;18.610;2023-02-28T02:06:03;138.13;;;52.28;;
78183;SDS011;67442;44.570;18.610;2023-02-28T02:08:30;124.88;;;47.22;;
78183;SDS011;67442;44.570;18.610;2023-02-28T02:10:58;111.85;;;41.20;;
78183;SDS011;67442;44.570;18.610;2023-02-28T02:39:19;79.60;;;30.23;;
78183;SDS011;67442;44.570;18.610;2023-02-28T02:42:14;67.82;;;25.38;;
78183;SDS011;67442;44.570;18.610;2023-02-28T02:45:06;48.95;;;18.73;;
78183;SDS011;67442;44.570;18.610;2023-02-28T02:47:37;49.10;;;18.85;;
78183;SDS011;67442;44.570;18.610;2023-02-28T02:50:06;43.80;;;17.17;;
78183;SDS011;67442;44.570;18.610;2023-02-28T02:52:42;31.67;;;12.45;;
78183;SDS011;67442;44.570;18.610;2023-02-28T02:55:14;30.40;;;13.23;;
78183;SDS011;67442;44.570;18.610;2023-02-28T02:57:45;39.45;;;14.88;;
78183;SDS011;67442;44.570;18.610;2023-02-28T03:00:33;34.75;;;13.40;;
78183;SDS011;67442;44.570;18.610;2023-02-28T03:03:04;50.95;;;19.27;;
78183;SDS011;67442;44.570;18.610;2023-02-28T03:05:50;25.15;;;11.07;;
78183;SDS011;67442;44.570;18.610;2023-02-28T03:08:21;28.10;;;10.73;;
78183;SDS011;67442;44.570;18.610;2023-02-28T03:10:50;26.90;;;10.68;;
78183;SDS011;67442;44.570;18.610;2023-02-28T03:13:31;24.60;;;10.57;;
78183;SDS011;67442;44.570;18.610;2023-02-28T03:19:10;35.95;;;14.43;;
78183;SDS011;67442;44.570;18.610;2023-02-28T03:24:45;27.80;;;11.90;;
78183;SDS011;67442;44.570;18.610;2023-02-28T03:32:45;25.08;;;11.32;;
78183;SDS011;67442;44.570;18.610;2023-02-28T03:35:22;22.30;;;10.23;;
78183;SDS011;67442;44.570;18.610;2023-02-28T03:41:10;20.75;;;8.43;;
78183;SDS011;67442;44.570;18.610;2023-02-28T03:43:43;21.33;;;9.73;;
78183;SDS011;67442;44.570;18.610;2023-02-28T03:46:18;37.33;;;16.23;;
78183;SDS011;67442;44.570;18.610;2023-02-28T03:48:53;22.75;;;10.90;;
78183;SDS011;67442;44.570;18.610;2023-02-28T03:54:17;20.15;;;9.10;;
78183;SDS011;67442;44.570;18.610;2023-02-28T03:56:51;19.08;;;7.53;;
78183;SDS011;67442;44.570;18.610;2023-02-28T03:59:47;15.60;;;7.18;;
78183;SDS011;67442;44.570;18.610;2023-02-28T04:02:16;18.92;;;8.15;;
78183;SDS011;67442;44.570;18.610;2023-02-28T04:04:48;21.02;;;10.05;;
78183;SDS011;67442;44.570;18.610;2023-02-28T04:07:16;16.58;;;7.82;;
78183;SDS011;67442;44.570;18.610;2023-02-28T04:09:43;19.30;;;7.55;;
78183;SDS011;67442;44.570;18.610;2023-02-28T04:12:11;16.17;;;7.28;;
78183;SDS011;67442;44.570;18.610;2023-02-28T04:14:38;17.95;;;8.40;;
78183;SDS011;67442;44.570;18.610;2023-02-28T04:17:05;20.27;;;9.93;;
78183;SDS011;67442;44.570;18.610;2023-02-28T04:19:33;17.98;;;7.85;;
78183;SDS011;67442;44.570;18.610;2023-02-28T04:22:00;19.95;;;7.97;;
78183;SDS011;67442;44.570;18.610;2023-02-28T04:24:28;17.95;;;8.05;;
78183;SDS011;67442;44.570;18.610;2023-02-28T04:26:58;18.95;;;8.15;;
78183;SDS011;67442;44.570;18.610;2023-02-28T04:29:29;17.35;;;7.85;;
78183;SDS011;67442;44.570;18.610;2023-02-28T04:31:58;19.33;;;8.13;;
78183;SDS011;67442;44.570;18.610;2023-02-28T04:34:26;22.05;;;8.30;;
78183;SDS011;67442;44.570;18.610;2023-02-28T04:36:54;21.25;;;7.95;;
78183;SDS011;67442;44.570;18.610;2023-02-28T04:39:25;22.25;;;9.30;;
78183;SDS011;67442;44.570;18.610;2023-02-28T04:41:52;27.30;;;11.90;;
78183;SDS011;67442;44.570;18.610;2023-02-28T04:44:20;26.17;;;11.43;;
78183;SDS011;67442;44.570;18.610;2023-02-28T04:46:48;26.38;;;11.27;;
78183;SDS011;67442;44.570;18.610;2023-02-28T04:49:15;32.25;;;11.65;;
78183;SDS011;67442;44.570;18.610;2023-02-28T04:51:47;33.55;;;12.15;;
78183;SDS011;67442;44.570;18.610;2023-02-28T04:54:15;45.60;;;15.57;;
78183;SDS011;67442;44.570;18.610;2023-02-28T04:56:43;43.05;;;16.15;;
78183;SDS011;67442;44.570;18.610;2023-02-28T04:59:10;50.25;;;16.95;;
78183;SDS011;67442;44.570;18.610;2023-02-28T05:01:37;46.05;;;17.95;;
78183;SDS011;67442;44.570;18.610;2023-02-28T05:04:04;45.83;;;17.67;;
78183;SDS011;67442;44.570;18.610;2023-02-28T05:06:32;45.33;;;18.52;;
78183;SDS011;67442;44.570;18.610;2023-02-28T05:08:59;44.20;;;17.35;;
78183;SDS011;67442;44.570;18.610;2023-02-28T05:11:27;47.05;;;18.25;;
78183;SDS011;67442;44.570;18.610;2023-02-28T05:16:29;97.70;;;30.42;;
78183;SDS011;67442;44.570;18.610;2023-02-28T05:18:57;53.00;;;21.10;;
78183;SDS011;67442;44.570;18.610;2023-02-28T05:23:53;59.20;;;22.58;;
78183;SDS011;67442;44.570;18.610;2023-02-28T05:26:20;94.60;;;32.88;;
78183;SDS011;67442;44.570;18.610;2023-02-28T05:28:47;86.97;;;29.50;;
78183;SDS011;67442;44.570;18.610;2023-02-28T05:31:14;56.22;;;22.40;;
78183;SDS011;67442;44.570;18.610;2023-02-28T05:33:41;52.75;;;21.13;;
78183;SDS011;67442;44.570;18.610;2023-02-28T05:36:12;53.40;;;21.23;;
78183;SDS011;67442;44.570;18.610;2023-02-28T05:38:38;39.35;;;16.95;;
78183;SDS011;67442;44.570;18.610;2023-02-28T05:41:06;50.92;;;19.67;;
78183;SDS011;67442;44.570;18.610;2023-02-28T05:43:33;66.72;;;24.58;;
78183;SDS011;67442;44.570;18.610;2023-02-28T05:46:07;69.82;;;26.25;;
78183;SDS011;67442;44.570;18.610;2023-02-28T05:48:35;66.82;;;25.38;;
78183;SDS011;67442;44.570;18.610;2023-02-28T05:51:03;76.00;;;26.33;;
78183;SDS011;67442;44.570;18.610;2023-02-28T05:53:32;67.22;;;23.08;;
78183;SDS011;67442;44.570;18.610;2023-02-28T05:55:59;57.58;;;21.77;;
78183;SDS011;67442;44.570;18.610;2023-02-28T05:58:31;41.75;;;16.75;;
78183;SDS011;67442;44.570;18.610;2023-02-28T06:03:52;31.42;;;13.02;;
78183;SDS011;67442;44.570;18.610;2023-02-28T06:06:20;36.80;;;13.95;;
78183;SDS011;67442;44.570;18.610;2023-02-28T06:08:47;41.03;;;15.75;;
78183;SDS011;67442;44.570;18.610;2023-02-28T06:11:15;41.42;;;15.70;;
78183;SDS011;67442;44.570;18.610;2023-02-28T06:13:41;37.65;;;15.88;;
78183;SDS011;67442;44.570;18.610;2023-02-28T06:16:10;49.30;;;21.40;;
78183;SDS011;67442;44.570;18.610;2023-02-28T06:18:37;63.88;;;25.08;;
78183;SDS011;67442;44.570;18.610;2023-02-28T06:21:05;75.53;;;29.67;;
78183;SDS011;67442;44.570;18.610;2023-02-28T06:23:32;94.53;;;38.08;;
78183;SDS011;67442;44.570;18.610;2023-02-28T06:25:59;92.72;;;37.63;;
78183;SDS011;67442;44.570;18.610;2023-02-28T06:28:27;85.43;;;34.97;;
78183;SDS011;67442;44.570;18.610;2023-02-28T06:30:54;81.65;;;32.92;;
78183;SDS011;67442;44.570;18.610;2023-02-28T06:33:22;94.88;;;40.35;;
78183;SDS011;67442;44.570;18.610;2023-02-28T06:35:51;108.43;;;42.47;;
78183;SDS011;67442;44.570;18.610;2023-02-28T06:38:17;119.05;;;49.25;;
78183;SDS011;67442;44.570;18.610;2023-02-28T06:40:44;143.15;;;61.22;;
78183;SDS011;67442;44.570;18.610;2023-02-28T06:43:18;124.63;;;53.42;;
78183;SDS011;67442;44.570;18.610;2023-02-28T06:45:45;126.30;;;52.83;;
78183;SDS011;67442;44.570;18.610;2023-02-28T06:48:16;121.53;;;47.47;;
78183;SDS011;67442;44.570;18.610;2023-02-28T06:50:43;96.93;;;41.67;;
78183;SDS011;67442;44.570;18.610;2023-02-28T06:53:10;92.10;;;39.28;;
78183;SDS011;67442;44.570;18.610;2023-02-28T06:55:38;88.50;;;36.83;;
78183;SDS011;67442;44.570;18.610;2023-02-28T06:58:05;118.80;;;47.25;;
78183;SDS011;67442;44.570;18.610;2023-02-28T07:00:52;94.47;;;43.28;;
78183;SDS011;67442;44.570;18.610;2023-02-28T07:03:19;76.47;;;31.60;;
78183;SDS011;67442;44.570;18.610;2023-02-28T07:05:51;97.05;;;37.58;;
78183;SDS011;67442;44.570;18.610;2023-02-28T07:08:18;135.45;;;46.03;;
78183;SDS011;67442;44.570;18.610;2023-02-28T07:10:45;170.40;;;54.38;;
78183;SDS011;67442;44.570;18.610;2023-02-28T07:13:17;169.13;;;52.88;;
78183;SDS011;67442;44.570;18.610;2023-02-28T07:15:44;64.55;;;30.10;;
78183;SDS011;67442;44.570;18.610;2023-02-28T07:18:18;92.43;;;39.53;;
78183;SDS011;67442;44.570;18.610;2023-02-28T07:20:45;71.20;;;29.77;;
78183;SDS011;67442;44.570;18.610;2023-02-28T07:23:13;81.70;;;35.53;;
78183;SDS011;67442;44.570;18.610;2023-02-28T07:25:40;67.40;;;29.45;;
78183;SDS011;67442;44.570;18.610;2023-02-28T07:28:12;69.65;;;31.35;;
78183;SDS011;67442;44.570;18.610;2023-02-28T07:30:39;66.95;;;29.92;;
78183;SDS011;67442;44.570;18.610;2023-02-28T07:33:06;62.17;;;27.85;;
78183;SDS011;67442;44.570;18.610;2023-02-28T07:35:34;65.15;;;28.63;;
78183;SDS011;67442;44.570;18.610;2023-02-28T07:38:04;70.35;;;30.55;;
78183;SDS011;67442;44.570;18.610;2023-02-28T07:40:38;66.18;;;29.63;;
78183;SDS011;67442;44.570;18.610;2023-02-28T07:43:09;66.53;;;29.77;;
78183;SDS011;67442;44.570;18.610;2023-02-28T07:45:37;62.40;;;27.88;;
78183;SDS011;67442;44.570;18.610;2023-02-28T07:48:04;76.60;;;34.53;;
78183;SDS011;67442;44.570;18.610;2023-02-28T07:50:32;43.28;;;21.02;;
78183;SDS011;67442;44.570;18.610;2023-02-28T07:53:00;43.03;;;18.60;;
78183;SDS011;67442;44.570;18.610;2023-02-28T07:55:26;46.45;;;21.02;;
78183;SDS011;67442;44.570;18.610;2023-02-28T07:57:53;40.78;;;18.33;;
78183;SDS011;67442;44.570;18.610;2023-02-28T08:00:19;41.10;;;17.30;;
78183;SDS011;67442;44.570;18.610;2023-02-28T08:02:48;35.75;;;15.43;;
78183;SDS011;67442;44.570;18.610;2023-02-28T08:05:16;38.40;;;16.25;;
78183;SDS011;67442;44.570;18.610;2023-02-28T08:07:43;34.85;;;16.17;;
78183;SDS011;67442;44.570;18.610;2023-02-28T08:10:11;38.47;;;17.52;;
78183;SDS011;67442;44.570;18.610;2023-02-28T08:12:38;53.00;;;22.30;;
78183;SDS011;67442;44.570;18.610;2023-02-28T08:15:06;26.33;;;12.05;;
78183;SDS011;67442;44.570;18.610;2023-02-28T08:17:36;46.22;;;21.27;;
78183;SDS011;67442;44.570;18.610;2023-02-28T08:20:03;28.10;;;12.35;;
78183;SDS011;67442;44.570;18.610;2023-02-28T08:22:30;23.10;;;11.20;;
78183;SDS011;67442;44.570;18.610;2023-02-28T08:24:58;27.05;;;13.05;;
78183;SDS011;67442;44.570;18.610;2023-02-28T08:27:25;23.83;;;12.00;;
78183;SDS011;67442;44.570;18.610;2023-02-28T08:29:53;33.20;;;15.35;;
78183;SDS011;67442;44.570;18.610;2023-02-28T08:32:24;89.70;;;33.72;;
78183;SDS011;67442;44.570;18.610;2023-02-28T08:34:51;51.47;;;22.35;;
78183;SDS011;67442;44.570;18.610;2023-02-28T08:37:19;33.00;;;15.90;;
78183;SDS011;67442;44.570;18.610;2023-02-28T08:39:46;34.38;;;17.08;;
78183;SDS011;67442;44.570;18.610;2023-02-28T08:42:13;45.92;;;21.95;;
78183;SDS011;67442;44.570;18.610;2023-02-28T08:44:40;69.80;;;32.45;;
78183;SDS011;67442;44.570;18.610;2023-02-28T08:47:08;64.15;;;24.17;;
78183;SDS011;67442;44.570;18.610;2023-02-28T08:49:38;58.25;;;26.67;;
78183;SDS011;67442;44.570;18.610;2023-02-28T08:52:06;41.10;;;19.15;;
78183;SDS011;67442;44.570;18.610;2023-02-28T08:54:33;40.42;;;17.17;;
78183;SDS011;67442;44.570;18.610;2023-02-28T08:57:01;57.38;;;23.73;;
78183;SDS011;67442;44.570;18.610;2023-02-28T08:59:29;35.38;;;16.73;;
78183;SDS011;67442;44.570;18.610;2023-02-28T09:01:56;31.27;;;14.65;;
78183;SDS011;67442;44.570;18.610;2023-02-28T09:04:27;28.90;;;13.85;;
78183;SDS011;67442;44.570;18.610;2023-02-28T09:06:56;33.58;;;15.55;;
78183;SDS011;67442;44.570;18.610;2023-02-28T09:09:23;26.67;;;13.93;;
78183;SDS011;67442;44.570;18.610;2023-02-28T09:11:51;40.80;;;18.40;;
78183;SDS011;67442;44.570;18.610;2023-02-28T09:14:18;36.60;;;18.10;;
78183;SDS011;67442;44.570;18.610;2023-02-28T09:16:45;30.88;;;15.80;;
78183;SDS011;67442;44.570;18.610;2023-02-28T09:19:12;34.13;;;15.13;;
78183;SDS011;67442;44.570;18.610;2023-02-28T09:21:39;39.03;;;16.15;;
78183;SDS011;67442;44.570;18.610;2023-02-28T09:24:06;48.00;;;20.95;;
78183;SDS011;67442;44.570;18.610;2023-02-28T09:26:34;51.10;;;21.17;;
78183;SDS011;67442;44.570;18.610;2023-02-28T09:29:02;40.05;;;19.08;;
78183;SDS011;67442;44.570;18.610;2023-02-28T09:31:30;61.92;;;26.77;;
78183;SDS011;67442;44.570;18.610;2023-02-28T09:33:58;46.28;;;19.38;;
78183;SDS011;67442;44.570;18.610;2023-02-28T09:36:25;36.20;;;15.48;;
78183;SDS011;67442;44.570;18.610;2023-02-28T09:38:53;33.30;;;15.98;;
78183;SDS011;67442;44.570;18.610;2023-02-28T09:41:25;31.58;;;14.25;;
78183;SDS011;67442;44.570;18.610;2023-02-28T09:43:56;33.25;;;13.98;;
78183;SDS011;67442;44.570;18.610;2023-02-28T09:46:30;30.55;;;13.68;;
78183;SDS011;67442;44.570;18.610;2023-02-28T09:49:06;26.17;;;12.75;;
78183;SDS011;67442;44.570;18.610;2023-02-28T09:54:21;24.08;;;12.20;;
78183;SDS011;67442;44.570;18.610;2023-02-28T10:05:20;28.70;;;14.35;;
78183;SDS011;67442;44.570;18.610;2023-02-28T10:12:59;25.90;;;13.00;;
78183;SDS011;67442;44.570;18.610;2023-02-28T10:15:29;29.23;;;12.77;;
78183;SDS011;67442;44.570;18.610;2023-02-28T10:17:59;25.60;;;11.90;;
78183;SDS011;67442;44.570;18.610;2023-02-28T10:20:32;69.07;;;28.25;;
78183;SDS011;67442;44.570;18.610;2023-02-28T10:23:03;52.45;;;23.88;;
78183;SDS011;67442;44.570;18.610;2023-02-28T10:25:57;28.70;;;13.77;;
78183;SDS011;67442;44.570;18.610;2023-02-28T10:28:27;60.75;;;25.80;;
78183;SDS011;67442;44.570;18.610;2023-02-28T10:30:56;51.72;;;22.02;;
78183;SDS011;67442;44.570;18.610;2023-02-28T10:33:30;39.17;;;18.08;;
78183;SDS011;67442;44.570;18.610;2023-02-28T10:36:05;36.28;;;14.57;;
78183;SDS011;67442;44.570;18.610;2023-02-28T10:38:38;30.10;;;14.50;;
78183;SDS011;67442;44.570;18.610;2023-02-28T10:41:09;35.10;;;15.98;;
78183;SDS011;67442;44.570;18.610;2023-02-28T10:43:40;26.73;;;13.57;;
78183;SDS011;67442;44.570;18.610;2023-02-28T10:48:36;36.60;;;16.23;;
78183;SDS011;67442;44.570;18.610;2023-02-28T10:51:16;28.63;;;14.77;;
78183;SDS011;67442;44.570;18.610;2023-02-28T10:53:48;35.00;;;16.75;;
78183;SDS011;67442;44.570;18.610;2023-02-28T10:56:21;31.88;;;15.25;;
78183;SDS011;67442;44.570;18.610;2023-02-28T11:01:21;34.67;;;17.73;;
78183;SDS011;67442;44.570;18.610;2023-02-28T11:03:47;33.05;;;15.70;;
78183;SDS011;67442;44.570;18.610;2023-02-28T11:06:16;33.95;;;16.20;;
78183;SDS011;67442;44.570;18.610;2023-02-28T11:08:50;44.78;;;19.75;;
78183;SDS011;67442;44.570;18.610;2023-02-28T11:11:21;47.30;;;20.88;;
78183;SDS011;67442;44.570;18.610;2023-02-28T11:13:55;47.55;;;21.77;;
78183;SDS011;67442;44.570;18.610;2023-02-28T11:16:34;48.80;;;20.70;;
78183;SDS011;67442;44.570;18.610;2023-02-28T11:19:06;51.35;;;21.27;;
78183;SDS011;67442;44.570;18.610;2023-02-28T11:21:48;44.97;;;20.48;;
78183;SDS011;67442;44.570;18.610;2023-02-28T11:24:44;85.18;;;34.28;;
78183;SDS011;67442;44.570;18.610;2023-02-28T11:27:48;40.47;;;16.98;;
78183;SDS011;67442;44.570;18.610;2023-02-28T11:30:36;36.45;;;17.05;;
78183;SDS011;67442;44.570;18.610;2023-02-28T11:33:40;40.60;;;17.90;;
78183;SDS011;67442;44.570;18.610;2023-02-28T11:38:59;47.15;;;18.50;;
78183;SDS011;67442;44.570;18.610;2023-02-28T11:46:57;41.55;;;20.30;;
78183;SDS011;67442;44.570;18.610;2023-02-28T12:05:45;32.78;;;15.57;;
78183;SDS011;67442;44.570;18.610;2023-02-28T12:22:01;29.13;;;14.02;;
78183;SDS011;67442;44.570;18.610;2023-02-28T12:27:17;55.00;;;24.23;;
78183;SDS011;67442;44.570;18.610;2023-02-28T12:32:53;64.20;;;23.63;;
78183;SDS011;67442;44.570;18.610;2023-02-28T12:38:13;70.95;;;26.20;;
78183;SDS011;67442;44.570;18.610;2023-02-28T12:41:05;77.75;;;27.88;;
78183;SDS011;67442;44.570;18.610;2023-02-28T12:43:47;71.00;;;26.08;;
78183;SDS011;67442;44.570;18.610;2023-02-28T12:46:38;81.88;;;29.52;;
78183;SDS011;67442;44.570;18.610;2023-02-28T12:49:09;98.00;;;33.63;;
78183;SDS011;67442;44.570;18.610;2023-02-28T12:51:41;98.38;;;35.70;;
78183;SDS011;67442;44.570;18.610;2023-02-28T13:00:03;75.40;;;26.15;;
78183;SDS011;67442;44.570;18.610;2023-02-28T13:10:50;88.45;;;29.65;;
78183;SDS011;67442;44.570;18.610;2023-02-28T13:13:31;102.82;;;35.65;;
78183;SDS011;67442;44.570;18.610;2023-02-28T13:16:02;100.75;;;35.35;;
78183;SDS011;67442;44.570;18.610;2023-02-28T13:18:37;70.85;;;25.02;;
78183;SDS011;67442;44.570;18.610;2023-02-28T13:21:28;82.97;;;28.85;;
78183;SDS011;67442;44.570;18.610;2023-02-28T13:23:58;78.80;;;27.85;;
78183;SDS011;67442;44.570;18.610;2023-02-28T13:39:47;75.75;;;27.63;;
78183;SDS011;67442;44.570;18.610;2023-02-28T13:47:54;66.28;;;23.30;;
78183;SDS011;67442;44.570;18.610;2023-02-28T13:50:30;70.93;;;23.58;;
78183;SDS011;67442;44.570;18.610;2023-02-28T13:53:29;69.18;;;24.75;;
78183;SDS011;67442;44.570;18.610;2023-02-28T14:01:47;83.50;;;29.67;;
78183;SDS011;67442;44.570;18.610;2023-02-28T14:07:16;57.38;;;21.90;;
78183;SDS011;67442;44.570;18.610;2023-02-28T14:10:06;67.60;;;23.70;;
78183;SDS011;67442;44.570;18.610;2023-02-28T14:18:22;51.22;;;19.55;;
78183;SDS011;67442;44.570;18.610;2023-02-28T14:21:09;53.78;;;17.85;;
78183;SDS011;67442;44.570;18.610;2023-02-28T14:29:14;54.63;;;20.88;;
78183;SDS011;67442;44.570;18.610;2023-02-28T14:37:48;70.75;;;23.63;;
78183;SDS011;67442;44.570;18.610;2023-02-28T14:40:26;49.80;;;18.23;;
78183;SDS011;67442;44.570;18.610;2023-02-28T14:42:58;65.50;;;22.75;;
78183;SDS011;67442;44.570;18.610;2023-02-28T14:45:26;67.68;;;23.05;;
78183;SDS011;67442;44.570;18.610;2023-02-28T14:47:57;56.90;;;22.20;;
78183;SDS011;67442;44.570;18.610;2023-02-28T14:50:36;60.45;;;22.77;;
78183;SDS011;67442;44.570;18.610;2023-02-28T14:53:03;82.00;;;28.92;;
78183;SDS011;67442;44.570;18.610;2023-02-28T14:55:33;103.47;;;36.50;;
78183;SDS011;67442;44.570;18.610;2023-02-28T14:58:02;68.60;;;24.55;;
78183;SDS011;67442;44.570;18.610;2023-02-28T15:00:48;79.40;;;27.73;;
78183;SDS011;67442;44.570;18.610;2023-02-28T15:03:20;91.38;;;29.58;;
78183;SDS011;67442;44.570;18.610;2023-02-28T15:06:01;75.25;;;25.35;;
78183;SDS011;67442;44.570;18.610;2023-02-28T15:08:29;60.28;;;22.27;;
78183;SDS011;67442;44.570;18.610;2023-02-28T15:11:01;80.65;;;29.02;;
78183;SDS011;67442;44.570;18.610;2023-02-28T15:13:41;90.10;;;31.55;;
78183;SDS011;67442;44.570;18.610;2023-02-28T15:16:13;82.03;;;28.67;;
78183;SDS011;67442;44.570;18.610;2023-02-28T15:18:55;86.13;;;29.25;;
78183;SDS011;67442;44.570;18.610;2023-02-28T15:21:32;81.43;;;23.40;;
78183;SDS011;67442;44.570;18.610;2023-02-28T15:26:41;116.32;;;34.20;;
78183;SDS011;67442;44.570;18.610;2023-02-28T15:29:12;87.03;;;32.03;;
78183;SDS011;67442;44.570;18.610;2023-02-28T15:31:48;82.45;;;28.90;;
78183;SDS011;67442;44.570;18.610;2023-02-28T15:34:21;76.97;;;26.73;;
78183;SDS011;67442;44.570;18.610;2023-02-28T15:36:53;91.47;;;30.15;;
78183;SDS011;67442;44.570;18.610;2023-02-28T15:39:25;120.68;;;38.15;;
78183;SDS011;67442;44.570;18.610;2023-02-28T15:42:13;90.53;;;29.42;;
78183;SDS011;67442;44.570;18.610;2023-02-28T15:44:47;125.15;;;37.60;;
78183;SDS011;67442;44.570;18.610;2023-02-28T15:47:17;77.38;;;23.45;;
78183;SDS011;67442;44.570;18.610;2023-02-28T15:52:21;86.70;;;29.83;;
78183;SDS011;67442;44.570;18.610;2023-02-28T15:54:57;83.75;;;30.98;;
78183;SDS011;67442;44.570;18.610;2023-02-28T15:57:26;67.22;;;22.00;;
78183;SDS011;67442;44.570;18.610;2023-02-28T16:00:00;103.15;;;35.00;;
78183;SDS011;67442;44.570;18.610;2023-02-28T16:02:34;96.95;;;27.80;;
78183;SDS011;67442;44.570;18.610;2023-02-28T16:07:33;111.90;;;42.35;;
78183;SDS011;67442;44.570;18.610;2023-02-28T16:10:05;160.68;;;51.22;;
78183;SDS011;67442;44.570;18.610;2023-02-28T16:12:33;82.97;;;30.35;;
78183;SDS011;67442;44.570;18.610;2023-02-28T16:15:03;111.10;;;37.05;;
78183;SDS011;67442;44.570;18.610;2023-02-28T16:17:56;90.50;;;33.50;;
78183;SDS011;67442;44.570;18.610;2023-02-28T16:20:29;105.13;;;42.90;;
78183;SDS011;67442;44.570;18.610;2023-02-28T16:22:57;78.13;;;26.50;;
78183;SDS011;67442;44.570;18.610;2023-02-28T16:25:34;66.57;;;23.05;;
78183;SDS011;67442;44.570;18.610;2023-02-28T16:28:15;89.88;;;28.48;;
78183;SDS011;67442;44.570;18.610;2023-02-28T16:30:54;103.10;;;32.65;;
78183;SDS011;67442;44.570;18.610;2023-02-28T16:33:25;84.07;;;28.10;;
78183;SDS011;67442;44.570;18.610;2023-02-28T16:35:53;109.05;;;36.83;;
78183;SDS011;67442;44.570;18.610;2023-02-28T16:38:19;132.95;;;42.53;;
78183;SDS011;67442;44.570;18.610;2023-02-28T16:40:49;121.22;;;43.15;;
78183;SDS011;67442;44.570;18.610;2023-02-28T16:43:22;112.47;;;37.88;;
78183;SDS011;67442;44.570;18.610;2023-02-28T16:45:55;111.15;;;38.90;;
78183;SDS011;67442;44.570;18.610;2023-02-28T16:48:23;100.05;;;29.92;;
78183;SDS011;67442;44.570;18.610;2023-02-28T16:50:54;90.10;;;28.92;;
78183;SDS011;67442;44.570;18.610;2023-02-28T16:53:21;81.10;;;25.90;;
78183;SDS011;67442;44.570;18.610;2023-02-28T16:55:53;71.53;;;23.60;;
78183;SDS011;67442;44.570;18.610;2023-02-28T16:58:20;73.50;;;25.83;;
78183;SDS011;67442;44.570;18.610;2023-02-28T17:00:58;61.58;;;20.70;;
78183;SDS011;67442;44.570;18.610;2023-02-28T17:03:28;59.15;;;20.35;;
78183;SDS011;67442;44.570;18.610;2023-02-28T17:05:56;54.13;;;18.25;;
78183;SDS011;67442;44.570;18.610;2023-02-28T17:08:23;51.45;;;18.60;;
78183;SDS011;67442;44.570;18.610;2023-02-28T17:10:50;74.53;;;23.70;;
78183;SDS011;67442;44.570;18.610;2023-02-28T17:13:17;100.78;;;33.40;;
78183;SDS011;67442;44.570;18.610;2023-02-28T17:15:44;177.48;;;61.53;;
78183;SDS011;67442;44.570;18.610;2023-02-28T17:18:16;186.90;;;59.83;;
78183;SDS011;67442;44.570;18.610;2023-02-28T17:20:45;128.45;;;44.55;;
78183;SDS011;67442;44.570;18.610;2023-02-28T17:23:12;91.95;;;32.50;;
78183;SDS011;67442;44.570;18.610;2023-02-28T17:25:43;61.55;;;21.05;;
78183;SDS011;67442;44.570;18.610;2023-02-28T17:28:21;80.30;;;28.67;;
78183;SDS011;67442;44.570;18.610;2023-02-28T17:30:48;89.10;;;26.55;;
78183;SDS011;67442;44.570;18.610;2023-02-28T17:33:20;83.80;;;27.35;;
78183;SDS011;67442;44.570;18.610;2023-02-28T17:35:51;79.70;;;27.20;;